Time;durP1;ratioP1;P1;durP2;ratioP2;P2;SDS_P1;SDS_P2;PMS_P1;PMS_P2;Temp;Humidity;BMP_temperature;BMP_pressure;BME280_temperature;BME280_humidity;BME280_pressure;Samples;Min_cycle;Max_cycle;Signal;HPM_P1;HPM_P2
2023/08/06 00:00:17;;;;;;;9.45;2.65;;;16.70;99.90;;;;;;4913986;29;20036;-86
2023/08/06 00:02:43;;;;;;;6.55;2.13;;;16.80;99.90;;;;;;4913192;29;20109;-89
2023/08/06 00:05:08;;;;;;;10.00;2.20;;;14.70;99.90;;;;;;4913326;29;20035;-89
2023/08/06 00:07:34;;;;;;;11.18;2.90;;;;;;;;;;4912985;29;20034;-89
2023/08/06 00:10:00;;;;;;;12.50;2.63;;;15.30;99.90;;;;;;4912770;29;20031;-88
2023/08/06 00:12:25;;;;;;;8.93;2.22;;;20.80;99.90;;;;;;4912315;29;20064;-88
2023/08/06 00:14:52;;;;;;;11.23;2.72;;;16.60;99.90;;;;;;4913813;29;20107;-90
2023/08/06 00:17:18;;;;;;;11.60;2.72;;;16.00;99.90;;;;;;4913631;29;20028;-87
2023/08/06 00:19:44;;;;;;;13.57;2.67;;;16.10;99.90;;;;;;4912747;29;20437;-89
2023/08/06 00:22:10;;;;;;;9.80;2.38;;;17.90;99.90;;;;;;4912817;29;20028;-88
2023/08/06 00:24:36;;;;;;;13.25;2.63;;;20.10;99.90;;;;;;4913186;29;20485;-89
2023/08/06 00:27:02;;;;;;;10.60;2.38;;;15.30;99.90;;;;;;4911270;29;20068;-88
2023/08/06 00:29:27;;;;;;;9.38;2.33;;;14.90;99.90;;;;;;4912842;29;20496;-88
2023/08/06 00:31:53;;;;;;;11.68;2.28;;;;;;;;;;4912328;29;20032;-85
2023/08/06 00:34:19;;;;;;;13.23;3.03;;;16.70;99.90;;;;;;4913227;29;20036;-88
2023/08/06 00:36:45;;;;;;;14.25;3.13;;;16.80;99.90;;;;;;4912658;29;20412;-87
2023/08/06 00:39:11;;;;;;;12.65;2.45;;;20.10;99.90;;;;;;4912892;29;20020;-86
2023/08/06 00:41:36;;;;;;;11.10;2.50;;;19.50;99.90;;;;;;4912949;29;20028;-89
2023/08/06 00:44:02;;;;;;;8.88;2.53;;;20.20;99.90;;;;;;4912239;29;20043;-89
2023/08/06 00:46:28;;;;;;;15.15;2.55;;;20.70;99.90;;;;;;4912306;29;20127;-86
2023/08/06 00:48:55;;;;;;;10.57;2.70;;;16.80;99.90;;;;;;4912024;29;20038;-85
2023/08/06 00:51:21;;;;;;;13.05;2.50;;;13.10;99.90;;;;;;4913639;29;20028;-86
2023/08/06 00:53:47;;;;;;;13.65;2.80;;;16.80;99.90;;;;;;4912581;29;20396;-85
2023/08/06 00:56:13;;;;;;;10.30;2.35;;;20.00;99.90;;;;;;4911004;29;20040;-87
2023/08/06 00:58:39;;;;;;;10.57;2.85;;;13.30;99.90;;;;;;4911539;29;20020;-87
2023/08/06 01:01:05;;;;;;;10.25;2.53;;;13.40;99.90;;;;;;4914477;29;20039;-87
2023/08/06 01:03:31;;;;;;;11.38;2.60;;;14.70;99.90;;;;;;4914855;29;20382;-86
2023/08/06 01:05:57;;;;;;;8.20;2.10;;;20.20;99.90;;;;;;4916187;29;20063;-87
2023/08/06 01:08:34;;;;;;;11.27;2.90;;;16.80;99.90;;;;;;4916066;29;20071;-87
2023/08/06 01:11:14;;;;;;;10.63;2.47;;;14.40;99.90;;;;;;4916562;29;20111;-86
2023/08/06 01:13:46;;;;;;;10.70;2.20;;;19.50;99.90;;;;;;4916264;29;20176;-87
2023/08/06 01:16:16;;;;;;;9.00;2.45;;;12.50;99.90;;;;;;4914204;29;20127;-85
2023/08/06 01:18:45;;;;;;;12.23;2.80;;;13.40;99.90;;;;;;4916149;29;20035;-86
2023/08/06 01:21:14;;;;;;;13.00;2.70;;;19.90;99.90;;;;;;4916267;29;20079;-88
2023/08/06 01:23:40;;;;;;;12.57;2.67;;;15.80;99.90;;;;;;4915493;29;20028;-87
2023/08/06 01:26:33;;;;;;;13.27;3.72;;;12.90;99.90;;;;;;4915179;29;20036;-86
2023/08/06 01:29:25;;;;;;;7.45;2.53;;;18.70;99.90;;;;;;4915523;29;20036;-87
2023/08/06 01:31:52;;;;;;;13.52;2.67;;;16.90;99.90;;;;;;4916374;29;20492;-87
2023/08/06 01:34:23;;;;;;;6.47;2.17;;;16.20;99.90;;;;;;4914458;29;20059;-87
2023/08/06 01:36:50;;;;;;;15.20;2.28;;;16.10;99.90;;;;;;4914127;29;20040;-88
2023/08/06 01:39:15;;;;;;;11.93;2.47;;;18.70;99.90;;;;;;4915527;29;20032;-86
2023/08/06 01:41:41;;;;;;;15.32;3.35;;;17.60;99.90;;;;;;4915219;29;20417;-87
2023/08/06 01:44:06;;;;;;;22.23;3.35;;;14.30;99.90;;;;;;4915983;29;20040;-89
2023/08/06 01:46:32;;;;;;;15.10;3.08;;;16.60;99.90;;;;;;4914180;29;20044;-88
2023/08/06 01:48:58;;;;;;;8.32;2.17;;;13.20;99.90;;;;;;4915753;29;20481;-87
2023/08/06 01:51:23;;;;;;;11.38;2.17;;;15.40;99.90;;;;;;4914900;29;20463;-84
2023/08/06 01:53:49;;;;;;;12.48;2.10;;;16.60;99.90;;;;;;4915337;29;20028;-88
2023/08/06 01:56:14;;;;;;;12.10;2.20;;;19.70;99.90;;;;;;4914094;29;20040;-88
2023/08/06 01:58:40;;;;;;;10.57;2.33;;;19.70;99.90;;;;;;4915338;29;20472;-88
2023/08/06 02:01:05;;;;;;;12.95;2.33;;;19.70;99.90;;;;;;4915313;29;20059;-86
2023/08/06 02:03:31;;;;;;;11.40;2.38;;;13.20;99.90;;;;;;4915287;29;20024;-87
2023/08/06 02:05:57;;;;;;;12.95;2.50;;;16.20;99.90;;;;;;4915070;29;20390;-88
2023/08/06 02:08:23;;;;;;;16.67;2.47;;;;;;;;;;4915984;29;20563;-89
2023/08/06 02:10:49;;;;;;;10.85;1.90;;;18.30;99.90;;;;;;4914763;29;20083;-87
2023/08/06 02:13:14;;;;;;;11.80;2.03;;;19.30;99.90;;;;;;4914585;29;20404;-88
2023/08/06 02:15:44;;;;;;;11.15;2.40;;;16.00;99.90;;;;;;4914934;29;20078;-85
2023/08/06 02:18:10;;;;;;;9.30;2.30;;;12.50;99.90;;;;;;4914854;29;20048;-88
2023/08/06 02:20:36;;;;;;;9.63;2.42;;;12.70;99.90;;;;;;4913413;29;20075;-85
2023/08/06 02:23:01;;;;;;;7.97;2.03;;;14.40;99.90;;;;;;4914603;29;20028;-86
2023/08/06 02:25:27;;;;;;;10.77;2.15;;;14.20;99.90;;;;;;4915543;29;20464;-87
2023/08/06 02:27:52;;;;;;;8.25;1.98;;;12.30;99.90;;;;;;4914582;29;20024;-87
2023/08/06 02:30:18;;;;;;;16.05;2.97;;;11.90;99.90;;;;;;4914443;29;20039;-86
2023/08/06 02:32:44;;;;;;;8.05;2.20;;;18.90;99.90;;;;;;4914160;29;20500;-84
2023/08/06 02:35:09;;;;;;;10.05;2.03;;;14.40;99.90;;;;;;4913704;29;20119;-86
2023/08/06 02:37:35;;;;;;;16.83;2.67;;;;;;;;;;4914768;29;20060;-85
2023/08/06 02:40:02;;;;;;;8.73;2.25;;;12.90;99.90;;;;;;4914467;29;20095;-87
2023/08/06 02:42:27;;;;;;;12.52;2.22;;;12.40;99.90;;;;;;4915518;29;20535;-86
2023/08/06 02:44:56;;;;;;;16.75;2.30;;;15.90;99.90;;;;;;4914631;29;20036;-85
2023/08/06 02:47:22;;;;;;;15.93;2.78;;;;;;;;;;4914392;29;20477;-86
2023/08/06 02:49:48;;;;;;;9.90;2.10;;;13.00;99.90;;;;;;4913714;29;20038;-87
2023/08/06 02:52:14;;;;;;;12.05;2.58;;;;;;;;;;4914161;29;20040;-86
2023/08/06 02:54:39;;;;;;;11.80;2.00;;;12.70;99.90;;;;;;4914656;29;20440;-85
2023/08/06 02:57:05;;;;;;;12.30;2.42;;;12.40;99.90;;;;;;4914237;29;20107;-86
2023/08/06 02:59:32;;;;;;;13.50;2.22;;;;;;;;;;4913924;29;20134;-85
2023/08/06 03:01:57;;;;;;;10.95;1.98;;;15.10;99.90;;;;;;4915273;29;20035;-88
2023/08/06 03:04:23;;;;;;;8.18;1.83;;;15.30;99.90;;;;;;4914580;29;20425;-89
2023/08/06 03:06:52;;;;;;;12.45;2.15;;;19.10;99.90;;;;;;4913370;29;20028;-86
2023/08/06 03:09:18;;;;;;;11.27;2.55;;;12.40;99.90;;;;;;4914281;29;20036;-84
2023/08/06 03:11:43;;;;;;;11.07;2.00;;;17.20;99.90;;;;;;4914116;29;20083;-84
2023/08/06 03:14:09;;;;;;;18.65;2.72;;;17.40;99.90;;;;;;4914117;29;20111;-85
2023/08/06 03:16:35;;;;;;;9.52;2.40;;;19.60;99.90;;;;;;4912737;29;20039;-85
2023/08/06 03:19:01;;;;;;;10.23;2.08;;;14.10;99.90;;;;;;4913240;29;20172;-88
2023/08/06 03:21:27;;;;;;;14.25;2.38;;;;;;;;;;4913972;29;20612;-85
2023/08/06 03:23:53;;;;;;;14.95;2.30;;;;;;;;;;4912951;29;20308;-85
2023/08/06 03:26:18;;;;;;;8.07;2.05;;;11.60;99.90;;;;;;4914004;29;20056;-85
2023/08/06 03:28:44;;;;;;;9.10;1.90;;;13.10;99.90;;;;;;4914170;29;20123;-86
2023/08/06 03:31:10;;;;;;;11.73;2.25;;;15.90;99.90;;;;;;4913688;29;20035;-87
2023/08/06 03:33:35;;;;;;;12.50;2.20;;;14.80;99.90;;;;;;4913561;29;20481;-86
2023/08/06 03:36:01;;;;;;;10.05;2.20;;;11.60;99.90;;;;;;4914361;29;20036;-87
2023/08/06 03:38:27;;;;;;;9.88;1.95;;;15.90;99.90;;;;;;4913927;29;20091;-87
2023/08/06 03:40:53;;;;;;;9.30;2.63;;;16.10;99.90;;;;;;4913746;29;20344;-84
2023/08/06 03:43:18;;;;;;;10.38;2.40;;;12.10;99.90;;;;;;4913639;29;20059;-84
2023/08/06 03:45:44;;;;;;;10.20;2.08;;;;;;;;;;4913849;29;20039;-88
2023/08/06 03:48:10;;;;;;;11.13;2.17;;;13.10;99.90;;;;;;4913674;29;20403;-83
2023/08/06 03:50:36;;;;;;;10.02;2.17;;;15.30;99.90;;;;;;4913666;29;20024;-85
2023/08/06 03:53:01;;;;;;;7.03;2.08;;;18.30;99.90;;;;;;4914498;29;20500;-85
2023/08/06 03:55:27;;;;;;;9.75;2.20;;;15.10;99.90;;;;;;4920126;29;20083;-84
2023/08/06 03:57:53;;;;;;;9.73;2.40;;;18.70;99.90;;;;;;4913343;29;20484;-86
2023/08/06 04:00:18;;;;;;;10.52;1.90;;;11.90;99.90;;;;;;4913533;29;20032;-86
2023/08/06 04:02:44;;;;;;;8.23;2.00;;;12.30;99.90;;;;;;4913488;29;20024;-88
2023/08/06 04:05:10;;;;;;;11.15;2.25;;;13.80;99.90;;;;;;4927979;29;20039;-88
2023/08/06 04:07:35;;;;;;;10.52;2.00;;;13.70;99.90;;;;;;4913618;29;20556;-87
2023/08/06 04:10:03;;;;;;;9.57;1.98;;;18.10;99.90;;;;;;4913881;29;20032;-85
2023/08/06 04:12:29;;;;;;;13.93;2.67;;;16.00;99.90;;;;;;4899587;29;20036;-87
2023/08/06 04:14:58;;;;;;;8.27;2.25;;;17.90;99.90;;;;;;4920058;29;20304;-87
2023/08/06 04:17:24;;;;;;;12.13;2.17;;;12.50;99.90;;;;;;4912977;29;20047;-86
2023/08/06 04:19:53;;;;;;;9.57;1.85;;;16.70;99.90;;;;;;4911845;29;20031;-86
2023/08/06 04:22:20;;;;;;;9.35;1.70;;;12.80;99.90;;;;;;4903136;29;20043;-91
2023/08/06 04:24:46;;;;;;;9.82;2.05;;;;;;;;;;4908595;29;20400;-88
2023/08/06 04:27:13;;;;;;;8.68;1.90;;;15.30;99.90;;;;;;4903842;29;20057;-91
2023/08/06 04:29:39;;;;;;;10.30;2.08;;;;;;;;;;4897699;29;20024;-87
2023/08/06 04:32:09;;;;;;;10.93;2.17;;;14.70;99.90;;;;;;4895039;29;20453;-89
2023/08/06 04:34:36;;;;;;;11.93;2.45;;;15.00;99.90;;;;;;4895260;29;20079;-89
2023/08/06 04:37:02;;;;;;;9.90;2.10;;;;;;;;;;4895454;29;20032;-90
2023/08/06 04:39:27;;;;;;;7.18;1.83;;;16.10;99.90;;;;;;4896374;29;20061;-89
2023/08/06 04:41:53;;;;;;;8.27;2.08;;;12.20;99.90;;;;;;4913223;29;20500;-89
2023/08/06 04:44:19;;;;;;;13.65;2.35;;;13.00;99.90;;;;;;4913086;29;20038;-86
2023/08/06 04:46:45;;;;;;;9.00;2.03;;;;;;;;;;4911310;29;20087;-88
2023/08/06 04:49:10;;;;;;;7.50;2.08;;;12.30;99.90;;;;;;4909482;29;20024;-89
2023/08/06 04:51:36;;;;;;;7.63;1.88;;;11.60;99.90;;;;;;4895403;29;20032;-87
2023/08/06 04:54:02;;;;;;;14.52;2.45;;;;;;;;;;4895209;29;20029;-88
2023/08/06 04:56:28;;;;;;;7.95;1.80;;;14.60;99.90;;;;;;4894189;29;20390;-87
2023/08/06 04:58:54;;;;;;;14.85;2.45;;;18.90;99.90;;;;;;4894339;29;20056;-91
2023/08/06 05:01:20;;;;;;;8.80;2.08;;;;;;;;;;4894326;29;20071;-89
2023/08/06 05:03:47;;;;;;;9.15;2.28;;;12.30;99.90;;;;;;4909683;29;20103;-87
2023/08/06 05:06:12;;;;;;;14.40;1.77;;;13.20;99.90;;;;;;4894630;29;20033;-86
2023/08/06 05:08:38;;;;;;;10.43;2.40;;;;;;;;;;4894253;29;20160;-88
2023/08/06 05:11:04;;;;;;;12.20;2.17;;;15.50;99.90;;;;;;4894802;29;20039;-87
2023/08/06 05:13:30;;;;;;;10.68;1.95;;;;;;;;;;4907411;29;20519;-86
2023/08/06 05:15:56;;;;;;;11.98;2.50;;;12.70;99.90;;;;;;4912725;29;20040;-86
2023/08/06 05:18:21;;;;;;;9.23;2.17;;;11.80;99.90;;;;;;4912960;29;20493;-89
2023/08/06 05:20:47;;;;;;;19.45;3.17;;;12.10;99.90;;;;;;4911218;29;20036;-88
2023/08/06 05:23:13;;;;;;;9.75;2.22;;;12.60;99.90;;;;;;4913222;29;20028;-90
2023/08/06 05:25:39;;;;;;;16.00;2.45;;;;;;;;;;4913152;29;20369;-88
2023/08/06 05:28:05;;;;;;;11.55;2.13;;;13.00;99.90;;;;;;4914256;29;20104;-86
2023/08/06 05:30:31;;;;;;;10.95;2.30;;;15.70;99.90;;;;;;4912859;29;20028;-87
2023/08/06 05:32:57;;;;;;;13.63;2.10;;;18.30;99.90;;;;;;4912848;29;20035;-87
2023/08/06 05:35:23;;;;;;;10.45;2.00;;;;;;;;;;4912900;29;20040;-87
2023/08/06 05:37:49;;;;;;;10.50;2.47;;;;;;;;;;4927070;29;20116;-89
2023/08/06 05:40:15;;;;;;;12.18;2.90;;;;;;;;;;4912973;29;20503;-90
2023/08/06 05:42:41;;;;;;;11.77;1.90;;;;;;;;;;4912744;29;20024;-86
2023/08/06 05:45:08;;;;;;;16.70;2.92;;;16.00;99.90;;;;;;4913318;29;20095;-88
2023/08/06 05:47:33;;;;;;;12.05;2.53;;;16.00;99.90;;;;;;4915392;29;20552;-88
2023/08/06 05:49:59;;;;;;;11.30;2.20;;;;;;;;;;4915046;29;20230;-89
2023/08/06 05:52:25;;;;;;;7.32;2.08;;;12.00;99.90;;;;;;4930529;29;20028;-91
2023/08/06 05:54:50;;;;;;;18.85;3.38;;;12.10;99.90;;;;;;4916282;29;20126;-87
2023/08/06 05:57:17;;;;;;;11.70;2.17;;;;;;;;;;4914688;29;20024;-86
2023/08/06 05:59:43;;;;;;;10.75;2.17;;;13.00;99.90;;;;;;4915739;29;20060;-90
2023/08/06 06:02:08;;;;;;;13.82;2.33;;;15.70;99.90;;;;;;4916600;29;20063;-86
2023/08/06 06:04:34;;;;;;;12.20;2.30;;;14.00;99.90;;;;;;4912270;29;20028;-87
2023/08/06 06:07:00;;;;;;;11.25;2.20;;;12.40;99.90;;;;;;4913438;29;20023;-90
2023/08/06 06:09:25;;;;;;;10.75;2.38;;;12.70;99.90;;;;;;4915911;29;20094;-91
2023/08/06 06:11:51;;;;;;;13.40;2.65;;;;;;;;;;4915695;29;20024;-89
2023/08/06 06:14:18;;;;;;;9.45;2.55;;;12.40;99.90;;;;;;4915607;29;20036;-87
2023/08/06 06:16:44;;;;;;;12.48;2.58;;;14.80;99.90;;;;;;4915684;29;20028;-89
2023/08/06 06:19:09;;;;;;;16.77;2.72;;;16.50;99.90;;;;;;4915840;29;20243;-85
2023/08/06 06:21:35;;;;;;;9.45;2.67;;;16.60;99.90;;;;;;4912374;29;20096;-87
2023/08/06 06:24:00;;;;;;;13.65;2.20;;;18.80;99.90;;;;;;4914838;29;20367;-85
2023/08/06 06:26:26;;;;;;;16.98;2.20;;;12.50;99.90;;;;;;4914998;29;20079;-87
2023/08/06 06:28:52;;;;;;;11.10;2.90;;;12.90;99.90;;;;;;4914136;29;20437;-88
2023/08/06 06:31:18;;;;;;;10.80;2.33;;;12.90;99.90;;;;;;4915156;29;20048;-90
2023/08/06 06:33:44;;;;;;;12.45;2.22;;;;;;;;;;4915081;29;20027;-88
2023/08/06 06:36:09;;;;;;;14.48;2.85;;;13.30;99.90;;;;;;4929703;29;20024;-85
2023/08/06 06:38:35;;;;;;;12.45;2.63;;;16.10;99.90;;;;;;4915267;29;20064;-89
2023/08/06 06:41:03;;;;;;;11.25;2.42;;;18.60;99.90;;;;;;4913368;29;20026;-88
2023/08/06 06:43:28;;;;;;;12.10;2.60;;;12.50;99.90;;;;;;4914438;29;20124;-86
2023/08/06 06:45:58;;;;;;;11.07;2.17;;;12.80;99.90;;;;;;4913727;29;20107;-89
2023/08/06 06:48:28;;;;;;;14.18;2.28;;;13.20;99.90;;;;;;4914738;29;20060;-88
2023/08/06 06:50:54;;;;;;;12.55;2.85;;;13.10;99.90;;;;;;4913896;29;20075;-85
2023/08/06 06:53:20;;;;;;;11.95;2.25;;;16.40;99.90;;;;;;4914468;29;20453;-84
2023/08/06 06:55:48;;;;;;;12.43;2.20;;;16.60;99.90;;;;;;4914291;29;20043;-85
2023/08/06 06:58:17;;;;;;;11.75;2.80;;;16.50;99.90;;;;;;4912045;29;20463;-84
2023/08/06 07:00:43;;;;;;;16.30;2.88;;;16.60;99.90;;;;;;4915153;29;20035;-85
2023/08/06 07:03:09;;;;;;;12.80;2.25;;;16.10;99.90;;;;;;4914544;29;20068;-86
2023/08/06 07:05:35;;;;;;;11.55;2.25;;;15.10;99.90;;;;;;4913982;29;20040;-86
2023/08/06 07:08:00;;;;;;;14.20;2.35;;;16.80;99.90;;;;;;4912685;29;20149;-88
2023/08/06 07:10:26;;;;;;;20.05;2.80;;;16.30;99.90;;;;;;4912718;29;20024;-87
2023/08/06 07:12:51;;;;;;;15.38;2.90;;;16.10;99.90;;;;;;4914074;29;20110;-84
2023/08/06 07:15:17;;;;;;;15.93;2.17;;;14.20;99.90;;;;;;4903723;29;20993;-88
2023/08/06 07:17:43;;;;;;;16.00;2.75;;;;;;;;;;4913471;29;20037;-85
2023/08/06 07:20:10;;;;;;;12.02;2.40;;;17.70;99.90;;;;;;4912091;29;20032;-89
2023/08/06 07:22:35;;;;;;;14.85;2.80;;;20.90;99.90;;;;;;4909202;29;20405;-86
2023/08/06 07:25:01;;;;;;;10.93;2.30;;;19.40;99.90;;;;;;4912683;29;20028;-87
2023/08/06 07:27:27;;;;;;;15.32;2.95;;;14.40;99.90;;;;;;4912998;29;20031;-85
2023/08/06 07:29:53;;;;;;;13.63;2.72;;;14.60;99.90;;;;;;4913098;29;20563;-89
2023/08/06 07:32:18;;;;;;;17.90;3.13;;;17.80;99.90;;;;;;4918004;29;20040;-86
2023/08/06 07:34:44;;;;;;;16.23;2.67;;;18.10;99.90;;;;;;4927567;28;20044;-85
2023/08/06 07:37:09;;;;;;;9.63;2.38;;;17.60;99.90;;;;;;4924283;29;20420;-85
2023/08/06 07:39:37;;;;;;;13.07;2.85;;;17.80;99.90;;;;;;4912636;29;20119;-85
2023/08/06 07:42:05;;;;;;;16.17;2.42;;;14.30;99.90;;;;;;4912758;29;20503;-86
2023/08/06 07:44:31;;;;;;;13.23;2.72;;;15.00;99.90;;;;;;4912635;29;20054;-85
2023/08/06 07:46:56;;;;;;;17.10;2.90;;;14.30;99.90;;;;;;4911013;29;20036;-87
2023/08/06 07:49:22;;;;;;;12.70;2.20;;;18.80;99.90;;;;;;4912815;29;20091;-86
2023/08/06 07:51:48;;;;;;;15.15;2.42;;;19.80;99.90;;;;;;4912524;29;20555;-86
2023/08/06 07:54:13;;;;;;;10.60;1.98;;;18.50;99.90;;;;;;4912137;29;20040;-85
2023/08/06 07:56:39;;;;;;;16.70;2.90;;;17.00;99.90;;;;;;4912144;29;20056;-89
2023/08/06 07:59:04;;;;;;;16.00;2.40;;;14.20;99.90;;;;;;4911594;29;20039;-87
2023/08/06 08:01:30;;;;;;;12.93;2.63;;;17.20;99.90;;;;;;4912294;29;20033;-87
2023/08/06 08:03:56;;;;;;;12.13;2.45;;;;;;;;;;4912562;29;20028;-87
2023/08/06 08:06:23;;;;;;;12.55;2.60;;;17.50;99.90;;;;;;4911901;29;20084;-86
2023/08/06 08:08:48;;;;;;;18.73;2.80;;;17.50;99.90;;;;;;4912064;29;20028;-86
2023/08/06 08:11:15;;;;;;;15.40;2.47;;;18.10;99.90;;;;;;4912033;29;20032;-86
2023/08/06 08:13:41;;;;;;;12.70;2.10;;;18.90;99.90;;;;;;4911499;29;20439;-87
2023/08/06 08:16:07;;;;;;;6.90;2.05;;;17.40;99.90;;;;;;4914678;29;20050;-84
2023/08/06 08:18:33;;;;;;;10.40;2.67;;;18.50;99.90;;;;;;4912874;29;20060;-91
2023/08/06 08:20:59;;;;;;;14.85;2.00;;;;;;;;;;4911476;29;20078;-88
2023/08/06 08:23:25;;;;;;;8.02;2.08;;;;;;;;;;4912673;29;20114;-88
2023/08/06 08:25:51;;;;;;;8.50;1.92;;;17.90;99.90;;;;;;4912650;29;20032;-88
2023/08/06 08:28:17;;;;;;;10.40;1.95;;;20.50;99.90;;;;;;4912339;29;20052;-87
2023/08/06 08:30:42;;;;;;;8.30;1.65;;;18.90;99.90;;;;;;4912861;29;20032;-85
2023/08/06 08:33:08;;;;;;;8.05;1.98;;;;;;;;;;4912504;29;20039;-87
2023/08/06 08:35:35;;;;;;;8.73;1.83;;;;;;;;;;4912181;29;20040;-90
2023/08/06 08:38:00;;;;;;;7.88;2.08;;;18.30;99.90;;;;;;4912316;29;20535;-86
2023/08/06 08:40:33;;;;;;;7.25;1.55;;;18.10;99.90;;;;;;4912537;29;20035;-87
2023/08/06 08:43:00;;;;;;;4.82;1.70;;;18.10;99.90;;;;;;4912413;29;20103;-87
2023/08/06 08:45:29;;;;;;;5.95;1.45;;;19.80;99.90;;;;;;4910793;29;20524;-89
2023/08/06 08:47:56;;;;;;;11.13;1.65;;;15.30;99.90;;;;;;4909972;29;20039;-91
2023/08/06 08:50:22;;;;;;;8.48;1.70;;;;;;;;;;4905549;29;20032;-91
2023/08/06 08:52:51;;;;;;;10.77;1.90;;;19.20;99.90;;;;;;4908045;29;20056;-89
2023/08/06 08:55:17;;;;;;;7.45;1.23;;;18.90;99.90;;;;;;4908117;29;20036;-89
2023/08/06 08:57:43;;;;;;;6.80;1.75;;;;;;;;;;4909503;29;20135;-86
2023/08/06 09:00:09;;;;;;;7.70;2.13;;;20.20;99.90;;;;;;4906911;29;20036;-86
2023/08/06 09:02:37;;;;;;;6.70;1.65;;;17.10;99.90;;;;;;4904457;29;20031;-85
2023/08/06 09:05:05;;;;;;;10.40;2.05;;;23.10;99.90;;;;;;4903105;29;20032;-87
2023/08/06 09:07:43;;;;;;;6.80;2.03;;;19.10;99.90;;;;;;4909065;29;20032;-86
2023/08/06 09:10:13;;;;;;;7.75;1.80;;;18.40;99.90;;;;;;4912046;29;20583;-86
2023/08/06 09:12:39;;;;;;;6.60;1.50;;;21.20;99.90;;;;;;4910543;29;20040;-84
2023/08/06 09:15:05;;;;;;;7.80;1.75;;;22.70;99.90;;;;;;4906409;29;20808;-86
2023/08/06 09:17:31;;;;;;;5.28;1.58;;;19.00;99.90;;;;;;4911930;29;20028;-88
2023/08/06 09:19:57;;;;;;;8.15;1.63;;;18.90;99.90;;;;;;4911960;29;20024;-85
2023/08/06 09:22:23;;;;;;;8.30;1.63;;;19.10;99.90;;;;;;4914907;29;20033;-83
2023/08/06 09:24:49;;;;;;;6.03;1.60;;;18.80;99.90;;;;;;4916089;29;20024;-83
2023/08/06 09:27:15;;;;;;;5.32;1.65;;;19.00;99.90;;;;;;4914220;29;20036;-84
2023/08/06 09:29:45;;;;;;;6.78;1.40;;;19.50;99.90;;;;;;4914624;29;20016;-87
2023/08/06 09:32:11;;;;;;;9.88;1.70;;;21.70;99.90;;;;;;4909683;29;20047;-87
2023/08/06 09:34:40;;;;;;;5.07;1.80;;;18.40;99.90;;;;;;4914602;29;20043;-89
2023/08/06 09:37:08;;;;;;;7.68;1.90;;;20.50;99.90;;;;;;4903819;29;20024;-88
2023/08/06 09:39:33;;;;;;;5.88;1.20;;;16.80;99.90;;;;;;4898803;29;20035;-89
2023/08/06 09:42:01;;;;;;;8.80;1.70;;;19.80;99.90;;;;;;4914431;29;20160;-87
2023/08/06 09:44:28;;;;;;;9.20;1.58;;;19.60;99.90;;;;;;4916028;29;20039;-86
2023/08/06 09:46:54;;;;;;;3.60;1.13;;;;;;;;;;4914064;29;20083;-85
2023/08/06 09:49:24;;;;;;;5.07;1.38;;;19.30;99.90;;;;;;4917071;29;20052;-86
2023/08/06 09:51:51;;;;;;;5.38;1.40;;;18.50;99.90;;;;;;4915073;29;20040;-88
2023/08/06 09:54:21;;;;;;;8.50;1.25;;;19.50;99.90;;;;;;4915291;29;20105;-86
2023/08/06 09:56:47;;;;;;;9.80;2.10;;;18.70;99.90;;;;;;4915844;29;20545;-86
2023/08/06 09:59:13;;;;;;;3.80;1.30;;;19.50;99.90;;;;;;4929196;29;20028;-89
2023/08/06 10:01:39;;;;;;;5.45;1.33;;;;;;;;;;4915096;29;20028;-89
2023/08/06 10:04:10;;;;;;;5.55;1.50;;;20.10;99.90;;;;;;4914727;29;20819;-87
2023/08/06 10:06:36;;;;;;;8.65;1.90;;;18.90;99.90;;;;;;4915101;29;20035;-89
2023/08/06 10:09:03;;;;;;;6.55;1.67;;;19.30;99.90;;;;;;4915541;29;20027;-89
2023/08/06 10:11:29;;;;;;;6.30;1.65;;;19.80;99.90;;;;;;4914987;29;20040;-87
2023/08/06 10:14:10;;;;;;;4.47;1.25;;;19.80;99.90;;;;;;4910526;29;20056;-86
2023/08/06 10:16:37;;;;;;;9.07;1.20;;;19.40;99.90;;;;;;4912667;29;20028;-90
2023/08/06 10:19:05;;;;;;;2.17;0.93;;;20.20;99.90;;;;;;4913010;29;20051;-88
2023/08/06 10:21:31;;;;;;;3.03;1.10;;;20.80;99.90;;;;;;4915040;29;20032;-88
2023/08/06 10:23:57;;;;;;;2.42;0.80;;;18.80;99.90;;;;;;4914510;29;20033;-86
2023/08/06 10:26:29;;;;;;;4.97;1.10;;;18.40;99.90;;;;;;4914575;29;20507;-85
2023/08/06 10:28:56;;;;;;;3.33;0.82;;;19.40;99.90;;;;;;4915516;29;20032;-87
2023/08/06 10:32:14;;;;;;;6.18;0.90;;;18.90;99.90;;;;;;4915850;29;20028;-93
2023/08/06 10:34:56;;;;;;;5.60;1.33;;;19.80;99.90;;;;;;4896544;29;20052;-89
2023/08/06 10:37:23;;;;;;;4.15;1.35;;;19.00;99.90;;;;;;4916139;29;20032;-91
2023/08/06 10:39:52;;;;;;;8.15;1.00;;;20.00;99.90;;;;;;4916611;29;20088;-88
2023/08/06 10:42:22;;;;;;;8.75;1.45;;;20.00;99.90;;;;;;4916034;29;20039;-88
2023/08/06 10:45:19;;;;;;;6.70;1.63;;;16.40;99.90;;;;;;4910052;29;20457;-88
2023/08/06 10:47:45;;;;;;;3.50;1.30;;;20.10;99.90;;;;;;4913490;29;20076;-90
2023/08/06 10:50:19;;;;;;;2.97;1.00;;;19.90;99.90;;;;;;4914539;29;20040;-93
2023/08/06 10:52:46;;;;;;;3.75;1.20;;;20.50;99.90;;;;;;4910919;29;20548;-88
2023/08/06 10:55:12;;;;;;;4.00;1.10;;;24.20;99.90;;;;;;4913986;29;20044;-89
2023/08/06 10:57:38;;;;;;;4.90;1.13;;;;;;;;;;4913537;29;20064;-91
2023/08/06 11:00:06;;;;;;;4.03;1.00;;;20.80;99.90;;;;;;4912551;29;20407;-91
2023/08/06 11:02:36;;;;;;;3.58;1.20;;;21.10;99.90;;;;;;4913753;29;20484;-87
2023/08/06 11:05:08;;;;;;;4.15;1.27;;;20.80;99.90;;;;;;4914985;29;20036;-89
2023/08/06 11:07:35;;;;;;;2.85;0.90;;;;;;;;;;4912258;29;20071;-91
2023/08/06 11:10:05;;;;;;;4.72;1.02;;;20.20;99.90;;;;;;4914125;29;20374;-93
2023/08/06 11:12:32;;;;;;;1.77;0.80;;;20.20;99.90;;;;;;4929071;29;20043;-88
2023/08/06 11:14:58;;;;;;;3.85;0.88;;;19.60;99.90;;;;;;4911668;29;20032;-86
2023/08/06 11:17:24;;;;;;;1.77;0.70;;;20.00;99.90;;;;;;4915067;29;20020;-88
2023/08/06 11:19:50;;;;;;;4.68;0.98;;;19.80;99.90;;;;;;4909041;29;20043;-90
2023/08/06 11:22:17;;;;;;;3.28;0.80;;;18.90;99.90;;;;;;4909828;29;20032;-87
2023/08/06 11:24:43;;;;;;;4.63;0.95;;;17.60;99.90;;;;;;4905545;29;20076;-89
2023/08/06 11:27:15;;;;;;;7.32;1.40;;;20.70;99.90;;;;;;4907455;29;20040;-91
2023/08/06 11:29:41;;;;;;;3.33;0.80;;;17.10;99.90;;;;;;4907593;29;20038;-88
2023/08/06 11:32:08;;;;;;;1.60;0.77;;;18.60;99.90;;;;;;4906885;29;20027;-87
2023/08/06 11:34:35;;;;;;;3.03;0.90;;;19.30;99.90;;;;;;4906482;29;20044;-90
2023/08/06 11:37:02;;;;;;;3.33;0.80;;;23.80;99.90;;;;;;4905169;29;20032;-83
2023/08/06 11:39:28;;;;;;;3.97;0.83;;;20.20;99.90;;;;;;4906101;29;20028;-81
2023/08/06 11:41:53;;;;;;;6.50;1.95;;;20.50;99.90;;;;;;4911949;29;20038;-82
2023/08/06 11:44:20;;;;;;;4.30;1.05;;;19.40;99.90;;;;;;4913068;29;20035;-82
2023/08/06 11:46:56;;;;;;;3.58;0.90;;;20.00;99.90;;;;;;4913775;29;20024;-83
2023/08/06 11:49:46;;;;;;;3.30;1.05;;;19.20;99.90;;;;;;4913306;29;20064;-81
2023/08/06 11:52:15;;;;;;;1.52;0.73;;;20.60;99.90;;;;;;4913221;29;20031;-82
2023/08/06 11:54:41;;;;;;;2.67;1.00;;;19.00;99.90;;;;;;4913707;29;20457;-83
2023/08/06 11:57:07;;;;;;;1.85;0.77;;;20.40;99.90;;;;;;4913370;29;20032;-85
2023/08/06 11:59:33;;;;;;;4.13;0.98;;;18.90;99.90;;;;;;4913906;29;20036;-86
2023/08/06 12:02:08;;;;;;;2.83;1.00;;;19.60;99.90;;;;;;4913694;29;20107;-86
2023/08/06 12:05:09;;;;;;;2.08;1.00;;;19.70;99.90;;;;;;4912824;29;20489;-80
2023/08/06 12:07:38;;;;;;;4.15;1.02;;;19.70;99.90;;;;;;4912535;29;20055;-92
2023/08/06 12:10:05;;;;;;;3.67;1.10;;;20.50;99.90;;;;;;4914453;29;20473;-89
2023/08/06 12:12:30;;;;;;;2.60;1.00;;;20.10;99.90;;;;;;4913559;29;20059;-91
2023/08/06 12:14:56;;;;;;;1.63;0.63;;;20.10;99.90;;;;;;4914756;29;20071;-91
2023/08/06 12:17:25;;;;;;;3.05;0.98;;;19.40;99.90;;;;;;4913772;29;20556;-90
2023/08/06 12:19:52;;;;;;;3.38;0.80;;;;;;;;;;4915058;29;20103;-89
2023/08/06 12:22:18;;;;;;;2.63;0.80;;;20.50;99.90;;;;;;4913734;29;20024;-87
2023/08/06 12:24:45;;;;;;;2.40;0.90;;;20.50;99.90;;;;;;4912510;29;20460;-89
2023/08/06 12:27:11;;;;;;;1.57;0.70;;;20.90;99.90;;;;;;4913494;29;20021;-94
2023/08/06 12:29:42;;;;;;;4.63;0.90;;;20.60;99.90;;;;;;4912410;29;20492;-84
2023/08/06 12:32:08;;;;;;;4.20;0.98;;;20.80;99.90;;;;;;4913619;29;20043;-91
2023/08/06 12:34:34;;;;;;;3.45;1.05;;;20.90;99.90;;;;;;4913649;29;20036;-92
2023/08/06 12:37:00;;;;;;;1.83;0.85;;;21.00;99.90;;;;;;4914025;29;20063;-87
2023/08/06 12:39:28;;;;;;;2.08;0.85;;;21.10;99.90;;;;;;4914312;29;20038;-89
2023/08/06 12:41:54;;;;;;;6.47;1.25;;;22.40;99.90;;;;;;4912339;29;20032;-93
2023/08/06 12:44:20;;;;;;;4.05;0.80;;;18.80;99.90;;;;;;4899207;29;20143;-86
2023/08/06 12:46:45;;;;;;;3.10;1.10;;;21.30;99.90;;;;;;4902075;29;20051;-89
2023/08/06 12:49:11;;;;;;;0.77;0.70;;;20.90;99.90;;;;;;4912004;29;20024;-91
2023/08/06 12:51:37;;;;;;;3.83;0.95;;;20.90;99.90;;;;;;4912959;29;20559;-86
2023/08/06 12:54:02;;;;;;;3.13;0.90;;;20.90;99.90;;;;;;4911650;29;20477;-83